sensor_id;sensor_type;location;lat;lon;timestamp;pressure;altitude;pressure_sealevel;temperature;humidity
32083;BME280;18597;48.328;7.932;2023-02-03T00:01:00;101093.41;;;5.98;100.00
32083;BME280;18597;48.328;7.932;2023-02-03T00:03:26;101098.09;;;6.12;100.00
32083;BME280;18597;48.328;7.932;2023-02-03T00:05:53;101085.31;;;6.01;100.00
32083;BME280;18597;48.328;7.932;2023-02-03T00:08:20;101094.53;;;5.93;100.00
32083;BME280;18597;48.328;7.932;2023-02-03T00:10:47;101089.34;;;5.90;100.00
32083;BME280;18597;48.328;7.932;2023-02-03T00:13:13;101086.72;;;5.88;100.00
32083;BME280;18597;48.328;7.932;2023-02-03T00:15:40;101078.06;;;5.84;100.00
32083;BME280;18597;48.328;7.932;2023-02-03T00:18:06;101087.56;;;5.90;100.00
32083;BME280;18597;48.328;7.932;2023-02-03T00:20:31;101073.00;;;5.78;100.00
32083;BME280;18597;48.328;7.932;2023-02-03T00:23:07;101086.13;;;5.81;100.00
32083;BME280;18597;48.328;7.932;2023-02-03T00:25:33;101080.38;;;5.72;100.00
32083;BME280;18597;48.328;7.932;2023-02-03T00:27:59;101077.69;;;5.94;100.00
32083;BME280;18597;48.328;7.932;2023-02-03T00:30:26;101079.19;;;5.79;100.00
32083;BME280;18597;48.328;7.932;2023-02-03T00:32:52;101084.16;;;5.87;100.00
32083;BME280;18597;48.328;7.932;2023-02-03T00:35:18;101081.38;;;5.90;100.00
32083;BME280;18597;48.328;7.932;2023-02-03T00:37:49;101085.34;;;5.79;100.00
32083;BME280;18597;48.328;7.932;2023-02-03T00:40:15;101089.84;;;5.77;100.00
32083;BME280;18597;48.328;7.932;2023-02-03T00:42:41;101092.19;;;5.85;100.00
32083;BME280;18597;48.328;7.932;2023-02-03T00:45:07;101099.47;;;5.80;100.00
32083;BME280;18597;48.328;7.932;2023-02-03T00:47:33;101101.00;;;5.85;100.00
32083;BME280;18597;48.328;7.932;2023-02-03T00:49:59;101101.31;;;5.78;100.00
32083;BME280;18597;48.328;7.932;2023-02-03T00:52:24;101094.84;;;5.85;100.00
32083;BME280;18597;48.328;7.932;2023-02-03T00:54:50;101088.31;;;5.72;100.00
32083;BME280;18597;48.328;7.932;2023-02-03T00:57:16;101095.50;;;5.70;100.00
32083;BME280;18597;48.328;7.932;2023-02-03T00:59:42;101100.53;;;5.76;100.00
32083;BME280;18597;48.328;7.932;2023-02-03T01:02:08;101097.22;;;5.71;100.00
32083;BME280;18597;48.328;7.932;2023-02-03T01:04:34;101095.56;;;5.68;100.00
32083;BME280;18597;48.328;7.932;2023-02-03T01:06:59;101092.75;;;5.71;100.00
32083;BME280;18597;48.328;7.932;2023-02-03T01:09:25;101089.56;;;5.63;100.00
32083;BME280;18597;48.328;7.932;2023-02-03T01:11:51;101101.78;;;5.67;100.00
32083;BME280;18597;48.328;7.932;2023-02-03T01:14:17;101094.22;;;5.78;100.00
32083;BME280;18597;48.328;7.932;2023-02-03T01:16:43;101103.25;;;5.74;100.00
32083;BME280;18597;48.328;7.932;2023-02-03T01:19:09;101099.06;;;5.69;100.00
32083;BME280;18597;48.328;7.932;2023-02-03T01:21:34;101098.47;;;5.62;100.00
32083;BME280;18597;48.328;7.932;2023-02-03T01:24:01;101098.47;;;5.62;100.00
32083;BME280;18597;48.328;7.932;2023-02-03T01:26:27;101093.25;;;5.59;100.00
32083;BME280;18597;48.328;7.932;2023-02-03T01:28:56;101097.06;;;5.53;100.00
32083;BME280;18597;48.328;7.932;2023-02-03T01:31:26;101097.72;;;5.58;100.00
32083;BME280;18597;48.328;7.932;2023-02-03T01:33:53;101093.38;;;5.78;100.00
32083;BME280;18597;48.328;7.932;2023-02-03T01:36:23;101098.13;;;5.70;100.00
32083;BME280;18597;48.328;7.932;2023-02-03T01:38:49;101091.84;;;5.72;100.00
32083;BME280;18597;48.328;7.932;2023-02-03T01:41:20;101101.41;;;5.76;100.00
32083;BME280;18597;48.328;7.932;2023-02-03T01:43:50;101101.66;;;5.70;100.00
32083;BME280;18597;48.328;7.932;2023-02-03T01:46:39;101090.66;;;5.79;100.00
32083;BME280;18597;48.328;7.932;2023-02-03T01:49:28;101080.28;;;5.73;100.00
32083;BME280;18597;48.328;7.932;2023-02-03T01:51:55;101079.25;;;5.77;100.00
32083;BME280;18597;48.328;7.932;2023-02-03T01:54:26;101078.69;;;5.91;100.00
32083;BME280;18597;48.328;7.932;2023-02-03T01:56:58;101068.72;;;5.76;100.00
32083;BME280;18597;48.328;7.932;2023-02-03T01:59:26;101066.59;;;5.84;100.00
32083;BME280;18597;48.328;7.932;2023-02-03T02:01:54;101067.56;;;5.81;100.00
32083;BME280;18597;48.328;7.932;2023-02-03T02:04:21;101057.09;;;5.78;100.00
32083;BME280;18597;48.328;7.932;2023-02-03T02:06:50;101055.53;;;5.74;100.00
32083;BME280;18597;48.328;7.932;2023-02-03T02:09:16;101073.94;;;5.77;100.00
32083;BME280;18597;48.328;7.932;2023-02-03T02:11:43;101081.13;;;5.75;100.00
32083;BME280;18597;48.328;7.932;2023-02-03T02:14:09;101089.59;;;5.83;100.00
32083;BME280;18597;48.328;7.932;2023-02-03T02:17:00;101090.56;;;5.81;100.00
32083;BME280;18597;48.328;7.932;2023-02-03T02:20:01;101086.78;;;5.66;100.00
32083;BME280;18597;48.328;7.932;2023-02-03T02:33:01;101054.63;;;5.74;100.00
32083;BME280;18597;48.328;7.932;2023-02-03T02:35:55;101047.44;;;5.77;100.00
32083;BME280;18597;48.328;7.932;2023-02-03T02:41:35;101034.25;;;5.76;100.00
32083;BME280;18597;48.328;7.932;2023-02-03T02:47:19;101000.22;;;5.65;100.00
32083;BME280;18597;48.328;7.932;2023-02-03T02:50:09;100998.22;;;5.50;100.00
32083;BME280;18597;48.328;7.932;2023-02-03T02:52:40;100994.47;;;5.55;100.00
32083;BME280;18597;48.328;7.932;2023-02-03T02:55:14;100999.03;;;5.52;100.00
32083;BME280;18597;48.328;7.932;2023-02-03T02:57:41;100984.44;;;5.42;100.00
32083;BME280;18597;48.328;7.932;2023-02-03T03:00:08;100980.00;;;5.42;100.00
32083;BME280;18597;48.328;7.932;2023-02-03T03:02:35;100969.31;;;5.44;100.00
32083;BME280;18597;48.328;7.932;2023-02-03T03:05:05;100960.25;;;5.49;100.00
32083;BME280;18597;48.328;7.932;2023-02-03T03:07:41;100970.22;;;5.44;100.00
32083;BME280;18597;48.328;7.932;2023-02-03T03:10:12;100967.16;;;5.53;100.00
32083;BME280;18597;48.328;7.932;2023-02-03T03:12:48;100961.84;;;5.53;100.00
32083;BME280;18597;48.328;7.932;2023-02-03T03:15:26;100964.25;;;5.60;100.00
32083;BME280;18597;48.328;7.932;2023-02-03T03:18:32;100978.22;;;5.63;100.00
32083;BME280;18597;48.328;7.932;2023-02-03T03:20:46;100979.16;;;5.62;100.00
32083;BME280;18597;48.328;7.932;2023-02-03T03:23:23;100971.31;;;5.59;100.00
32083;BME280;18597;48.328;7.932;2023-02-03T03:26:31;100965.16;;;5.58;100.00
32083;BME280;18597;48.328;7.932;2023-02-03T03:29:12;100965.88;;;5.62;100.00
32083;BME280;18597;48.328;7.932;2023-02-03T03:31:40;100971.25;;;5.61;100.00
32083;BME280;18597;48.328;7.932;2023-02-03T03:34:08;100984.63;;;5.57;100.00
32083;BME280;18597;48.328;7.932;2023-02-03T03:42:31;100999.50;;;5.62;100.00
32083;BME280;18597;48.328;7.932;2023-02-03T03:47:58;100992.50;;;5.59;100.00
32083;BME280;18597;48.328;7.932;2023-02-03T03:50:33;100993.19;;;5.64;100.00
32083;BME280;18597;48.328;7.932;2023-02-03T03:53:03;100989.81;;;5.61;100.00
32083;BME280;18597;48.328;7.932;2023-02-03T03:55:33;100988.63;;;5.68;100.00
32083;BME280;18597;48.328;7.932;2023-02-03T03:58:08;100999.03;;;5.72;100.00
32083;BME280;18597;48.328;7.932;2023-02-03T04:00:38;101008.16;;;5.65;100.00
32083;BME280;18597;48.328;7.932;2023-02-03T04:03:11;101013.47;;;5.65;100.00
32083;BME280;18597;48.328;7.932;2023-02-03T04:05:39;101025.53;;;5.72;100.00
32083;BME280;18597;48.328;7.932;2023-02-03T04:08:05;101012.53;;;5.87;100.00
32083;BME280;18597;48.328;7.932;2023-02-03T04:10:36;101016.13;;;5.85;100.00
32083;BME280;18597;48.328;7.932;2023-02-03T04:13:03;101034.16;;;5.77;100.00
32083;BME280;18597;48.328;7.932;2023-02-03T04:15:30;101032.03;;;5.85;100.00
32083;BME280;18597;48.328;7.932;2023-02-03T04:17:56;101033.31;;;5.77;100.00
32083;BME280;18597;48.328;7.932;2023-02-03T04:20:23;101028.13;;;5.74;100.00
32083;BME280;18597;48.328;7.932;2023-02-03T04:22:49;101043.56;;;5.64;100.00
32083;BME280;18597;48.328;7.932;2023-02-03T04:25:15;101050.25;;;5.73;100.00
32083;BME280;18597;48.328;7.932;2023-02-03T04:27:41;101045.03;;;5.71;100.00
32083;BME280;18597;48.328;7.932;2023-02-03T04:30:08;101037.16;;;5.70;100.00
32083;BME280;18597;48.328;7.932;2023-02-03T04:32:35;101041.84;;;5.63;100.00
32083;BME280;18597;48.328;7.932;2023-02-03T04:35:02;101044.91;;;5.74;100.00
32083;BME280;18597;48.328;7.932;2023-02-03T04:37:29;101057.28;;;5.74;100.00
32083;BME280;18597;48.328;7.932;2023-02-03T04:39:56;101053.25;;;5.65;100.00
32083;BME280;18597;48.328;7.932;2023-02-03T04:42:22;101043.13;;;5.75;100.00
32083;BME280;18597;48.328;7.932;2023-02-03T04:44:49;101047.44;;;5.77;100.00
32083;BME280;18597;48.328;7.932;2023-02-03T04:47:16;101039.88;;;5.68;100.00
32083;BME280;18597;48.328;7.932;2023-02-03T04:49:42;101039.91;;;5.67;100.00
32083;BME280;18597;48.328;7.932;2023-02-03T04:52:08;101043.84;;;5.78;100.00
32083;BME280;18597;48.328;7.932;2023-02-03T04:54:34;101055.97;;;5.84;100.00
32083;BME280;18597;48.328;7.932;2023-02-03T04:57:00;101044.59;;;5.82;100.00
32083;BME280;18597;48.328;7.932;2023-02-03T04:59:26;101046.31;;;5.83;100.00
32083;BME280;18597;48.328;7.932;2023-02-03T05:01:52;101045.38;;;5.84;100.00
32083;BME280;18597;48.328;7.932;2023-02-03T05:04:19;101035.47;;;5.88;100.00
32083;BME280;18597;48.328;7.932;2023-02-03T05:06:45;101019.97;;;5.78;100.00
32083;BME280;18597;48.328;7.932;2023-02-03T05:09:10;101016.28;;;5.82;100.00
32083;BME280;18597;48.328;7.932;2023-02-03T05:11:36;101010.59;;;5.92;100.00
32083;BME280;18597;48.328;7.932;2023-02-03T05:14:02;101013.16;;;5.93;100.00
32083;BME280;18597;48.328;7.932;2023-02-03T05:16:28;101012.31;;;5.93;100.00
32083;BME280;18597;48.328;7.932;2023-02-03T05:18:54;101018.53;;;5.92;100.00
32083;BME280;18597;48.328;7.932;2023-02-03T05:21:20;101022.34;;;5.84;100.00
32083;BME280;18597;48.328;7.932;2023-02-03T05:23:45;101027.13;;;5.76;100.00
32083;BME280;18597;48.328;7.932;2023-02-03T05:26:11;101013.81;;;5.78;100.00
32083;BME280;18597;48.328;7.932;2023-02-03T05:28:37;101018.69;;;5.87;100.00
32083;BME280;18597;48.328;7.932;2023-02-03T05:31:03;101031.81;;;5.92;100.00
32083;BME280;18597;48.328;7.932;2023-02-03T05:33:30;101024.78;;;5.91;100.00
32083;BME280;18597;48.328;7.932;2023-02-03T05:35:56;101035.47;;;5.88;100.00
32083;BME280;18597;48.328;7.932;2023-02-03T05:38:22;101032.03;;;5.85;100.00
32083;BME280;18597;48.328;7.932;2023-02-03T05:40:50;101033.91;;;5.83;100.00
32083;BME280;18597;48.328;7.932;2023-02-03T05:43:36;101040.25;;;5.79;100.00
32083;BME280;18597;48.328;7.932;2023-02-03T05:46:04;101037.56;;;6.01;100.00
32083;BME280;18597;48.328;7.932;2023-02-03T05:48:31;101026.59;;;5.89;100.00
32083;BME280;18597;48.328;7.932;2023-02-03T05:50:57;101022.47;;;5.81;100.00
32083;BME280;18597;48.328;7.932;2023-02-03T05:53:24;101034.38;;;5.93;100.00
32083;BME280;18597;48.328;7.932;2023-02-03T05:55:51;101044.25;;;5.90;100.00
32083;BME280;18597;48.328;7.932;2023-02-03T05:58:17;101035.34;;;6.11;100.00
32083;BME280;18597;48.328;7.932;2023-02-03T06:00:43;101035.66;;;6.05;100.00
32083;BME280;18597;48.328;7.932;2023-02-03T06:03:09;101040.03;;;6.06;100.00
32083;BME280;18597;48.328;7.932;2023-02-03T06:05:36;101050.22;;;6.15;100.00
32083;BME280;18597;48.328;7.932;2023-02-03T06:08:06;101059.38;;;6.08;100.00
32083;BME280;18597;48.328;7.932;2023-02-03T06:10:33;101076.09;;;5.90;100.00
32083;BME280;18597;48.328;7.932;2023-02-03T06:12:59;101085.41;;;5.78;100.00
32083;BME280;18597;48.328;7.932;2023-02-03T06:15:25;101083.03;;;5.72;100.00
32083;BME280;18597;48.328;7.932;2023-02-03T06:17:50;101076.13;;;5.68;100.00
32083;BME280;18597;48.328;7.932;2023-02-03T06:20:19;101063.84;;;5.65;100.00
32083;BME280;18597;48.328;7.932;2023-02-03T06:22:45;101075.41;;;5.84;100.00
32083;BME280;18597;48.328;7.932;2023-02-03T06:25:11;101057.09;;;5.78;100.00
32083;BME280;18597;48.328;7.932;2023-02-03T06:27:39;101072.16;;;5.78;100.00
32083;BME280;18597;48.328;7.932;2023-02-03T06:30:06;101058.50;;;5.87;100.00
32083;BME280;18597;48.328;7.932;2023-02-03T06:32:32;101062.28;;;5.61;100.00
32083;BME280;18597;48.328;7.932;2023-02-03T06:34:57;101071.88;;;5.64;100.00
32083;BME280;18597;48.328;7.932;2023-02-03T06:37:23;101070.63;;;5.52;100.00
32083;BME280;18597;48.328;7.932;2023-02-03T06:39:49;101075.38;;;5.64;100.00
32083;BME280;18597;48.328;7.932;2023-02-03T06:42:15;101072.34;;;5.53;100.00
32083;BME280;18597;48.328;7.932;2023-02-03T06:44:41;101067.38;;;5.44;100.00
32083;BME280;18597;48.328;7.932;2023-02-03T06:47:06;101067.66;;;5.60;100.00
32083;BME280;18597;48.328;7.932;2023-02-03T06:49:32;101068.28;;;5.44;100.00
32083;BME280;18597;48.328;7.932;2023-02-03T06:51:58;101065.44;;;5.49;100.00
32083;BME280;18597;48.328;7.932;2023-02-03T06:54:24;101071.59;;;5.49;100.00
32083;BME280;18597;48.328;7.932;2023-02-03T06:56:50;101061.59;;;5.56;100.00
32083;BME280;18597;48.328;7.932;2023-02-03T06:59:16;101032.44;;;5.56;100.00
32083;BME280;18597;48.328;7.932;2023-02-03T07:01:42;101013.16;;;5.52;100.00
32083;BME280;18597;48.328;7.932;2023-02-03T07:04:07;101022.59;;;5.58;100.00
32083;BME280;18597;48.328;7.932;2023-02-03T07:06:34;101016.19;;;5.64;100.00
32083;BME280;18597;48.328;7.932;2023-02-03T07:09:02;101010.75;;;5.67;100.00
32083;BME280;18597;48.328;7.932;2023-02-03T07:11:29;101017.06;;;5.64;100.00
32083;BME280;18597;48.328;7.932;2023-02-03T07:13:55;101015.34;;;5.63;100.00
32083;BME280;18597;48.328;7.932;2023-02-03T07:16:21;101009.25;;;5.61;100.00
32083;BME280;18597;48.328;7.932;2023-02-03T07:18:47;101030.38;;;5.63;100.00
32083;BME280;18597;48.328;7.932;2023-02-03T07:21:15;101025.41;;;5.75;100.00
32083;BME280;18597;48.328;7.932;2023-02-03T07:23:41;101037.88;;;5.73;100.00
32083;BME280;18597;48.328;7.932;2023-02-03T07:26:09;101038.59;;;5.77;100.00
32083;BME280;18597;48.328;7.932;2023-02-03T07:28:35;101036.88;;;5.76;100.00
32083;BME280;18597;48.328;7.932;2023-02-03T07:31:02;101041.97;;;5.80;100.00
32083;BME280;18597;48.328;7.932;2023-02-03T07:33:30;101059.69;;;5.80;100.00
32083;BME280;18597;48.328;7.932;2023-02-03T07:35:59;101060.53;;;5.80;100.00
32083;BME280;18597;48.328;7.932;2023-02-03T07:38:27;101039.84;;;5.89;100.00
32083;BME280;18597;48.328;7.932;2023-02-03T07:40:53;101038.56;;;5.99;100.00
32083;BME280;18597;48.328;7.932;2023-02-03T07:43:19;101039.09;;;6.07;100.00
32083;BME280;18597;48.328;7.932;2023-02-03T07:45:45;101016.50;;;6.17;100.00
32083;BME280;18597;48.328;7.932;2023-02-03T07:48:11;101029.44;;;6.25;100.00
32083;BME280;18597;48.328;7.932;2023-02-03T07:50:38;101029.00;;;6.34;100.00
32083;BME280;18597;48.328;7.932;2023-02-03T07:53:06;101029.59;;;6.40;100.00
32083;BME280;18597;48.328;7.932;2023-02-03T07:55:36;101027.44;;;6.49;100.00
32083;BME280;18597;48.328;7.932;2023-02-03T07:58:02;101029.53;;;6.61;100.00
32083;BME280;18597;48.328;7.932;2023-02-03T08:00:28;101042.38;;;6.70;100.00
32083;BME280;18597;48.328;7.932;2023-02-03T08:02:54;101036.56;;;6.81;100.00
32083;BME280;18597;48.328;7.932;2023-02-03T08:05:20;101024.72;;;6.88;100.00
32083;BME280;18597;48.328;7.932;2023-02-03T08:07:46;101025.59;;;6.88;100.00
32083;BME280;18597;48.328;7.932;2023-02-03T08:10:13;101024.09;;;7.00;100.00
32083;BME280;18597;48.328;7.932;2023-02-03T08:12:41;101033.13;;;7.15;100.00
32083;BME280;18597;48.328;7.932;2023-02-03T08:15:09;101044.06;;;7.09;100.00
32083;BME280;18597;48.328;7.932;2023-02-03T08:17:36;101050.66;;;7.19;100.00
32083;BME280;18597;48.328;7.932;2023-02-03T08:20:05;101046.41;;;7.15;100.00
32083;BME280;18597;48.328;7.932;2023-02-03T08:22:31;101052.38;;;7.20;100.00
32083;BME280;18597;48.328;7.932;2023-02-03T08:24:57;101052.69;;;7.14;100.00
32083;BME280;18597;48.328;7.932;2023-02-03T08:27:23;101053.69;;;7.11;100.00
32083;BME280;18597;48.328;7.932;2023-02-03T08:29:49;101071.72;;;7.05;100.00
32083;BME280;18597;48.328;7.932;2023-02-03T08:32:19;101075.44;;;7.01;100.00
32083;BME280;18597;48.328;7.932;2023-02-03T08:34:46;101063.47;;;6.92;100.00
32083;BME280;18597;48.328;7.932;2023-02-03T08:37:15;101067.44;;;6.83;100.00
32083;BME280;18597;48.328;7.932;2023-02-03T08:39:41;101073.59;;;6.84;100.00
32083;BME280;18597;48.328;7.932;2023-02-03T08:42:08;101082.94;;;6.92;100.00
32083;BME280;18597;48.328;7.932;2023-02-03T08:44:34;101090.69;;;6.97;100.00
32083;BME280;18597;48.328;7.932;2023-02-03T08:47:00;101112.25;;;6.91;100.00
32083;BME280;18597;48.328;7.932;2023-02-03T08:49:28;101107.78;;;6.91;100.00
32083;BME280;18597;48.328;7.932;2023-02-03T08:51:55;101106.75;;;6.94;100.00
32083;BME280;18597;48.328;7.932;2023-02-03T08:54:21;101110.44;;;6.91;100.00
32083;BME280;18597;48.328;7.932;2023-02-03T08:56:47;101111.47;;;6.89;100.00
32083;BME280;18597;48.328;7.932;2023-02-03T08:59:14;101107.78;;;6.91;100.00
32083;BME280;18597;48.328;7.932;2023-02-03T09:01:40;101111.88;;;6.99;100.00
32083;BME280;18597;48.328;7.932;2023-02-03T09:04:11;101119.47;;;6.87;100.00
32083;BME280;18597;48.328;7.932;2023-02-03T09:06:38;101127.44;;;6.87;100.00
32083;BME280;18597;48.328;7.932;2023-02-03T09:09:04;101129.03;;;6.91;100.00
32083;BME280;18597;48.328;7.932;2023-02-03T09:11:30;101135.88;;;6.97;100.00
32083;BME280;18597;48.328;7.932;2023-02-03T09:13:56;101144.53;;;7.01;100.00
32083;BME280;18597;48.328;7.932;2023-02-03T09:16:23;101143.25;;;7.09;100.00
32083;BME280;18597;48.328;7.932;2023-02-03T09:18:49;101130.81;;;7.29;100.00
32083;BME280;18597;48.328;7.932;2023-02-03T09:21:16;101134.34;;;7.29;100.00
32083;BME280;18597;48.328;7.932;2023-02-03T09:23:43;101127.75;;;7.19;100.00
32083;BME280;18597;48.328;7.932;2023-02-03T09:26:12;101127.78;;;7.17;100.00
32083;BME280;18597;48.328;7.932;2023-02-03T09:28:39;101143.69;;;7.19;100.00
32083;BME280;18597;48.328;7.932;2023-02-03T09:31:09;101147.34;;;7.16;100.00
32083;BME280;18597;48.328;7.932;2023-02-03T09:33:35;101154.25;;;7.02;100.00
32083;BME280;18597;48.328;7.932;2023-02-03T09:36:02;101157.72;;;7.04;100.00
32083;BME280;18597;48.328;7.932;2023-02-03T09:38:28;101159.16;;;7.11;100.00
32083;BME280;18597;48.328;7.932;2023-02-03T09:46:58;101134.91;;;7.72;100.00
32083;BME280;18597;48.328;7.932;2023-02-03T09:49:40;101140.38;;;7.69;100.00
32083;BME280;18597;48.328;7.932;2023-02-03T09:55:36;101124.81;;;7.96;100.00
32083;BME280;18597;48.328;7.932;2023-02-03T09:58:11;101127.09;;;8.03;100.00
32083;BME280;18597;48.328;7.932;2023-02-03T10:00:58;101126.84;;;8.08;100.00
32083;BME280;18597;48.328;7.932;2023-02-03T10:04:00;101126.53;;;8.14;100.00
32083;BME280;18597;48.328;7.932;2023-02-03T10:06:37;101126.59;;;8.30;100.00
32083;BME280;18597;48.328;7.932;2023-02-03T10:12:56;101130.00;;;9.00;100.00
32083;BME280;18597;48.328;7.932;2023-02-03T10:15:55;101133.53;;;9.00;100.00
32083;BME280;18597;48.328;7.932;2023-02-03T10:18:32;101139.75;;;8.83;100.00
32083;BME280;18597;48.328;7.932;2023-02-03T10:21:12;101129.50;;;8.76;100.00
32083;BME280;18597;48.328;7.932;2023-02-03T10:23:42;101127.34;;;8.67;100.00
32083;BME280;18597;48.328;7.932;2023-02-03T10:26:17;101123.16;;;8.78;100.00
32083;BME280;18597;48.328;7.932;2023-02-03T10:28:56;101114.88;;;9.00;100.00
32083;BME280;18597;48.328;7.932;2023-02-03T10:31:26;101119.91;;;9.21;100.00
32083;BME280;18597;48.328;7.932;2023-02-03T10:34:01;101114.56;;;9.36;100.00
32083;BME280;18597;48.328;7.932;2023-02-03T10:37:02;101108.38;;;9.36;100.00
32083;BME280;18597;48.328;7.932;2023-02-03T10:39:51;101101.81;;;9.57;100.00
32083;BME280;18597;48.328;7.932;2023-02-03T10:42:18;101099.81;;;9.77;100.00
32083;BME280;18597;48.328;7.932;2023-02-03T10:44:56;101098.13;;;9.90;100.00
32083;BME280;18597;48.328;7.932;2023-02-03T10:47:33;101095.03;;;9.82;100.00
32083;BME280;18597;48.328;7.932;2023-02-03T10:50:06;101097.25;;;9.89;100.00
32083;BME280;18597;48.328;7.932;2023-02-03T10:52:38;101107.91;;;10.05;100.00
32083;BME280;18597;48.328;7.932;2023-02-03T10:55:07;101113.72;;;10.12;100.00
32083;BME280;18597;48.328;7.932;2023-02-03T10:57:35;101109.22;;;10.12;100.00
32083;BME280;18597;48.328;7.932;2023-02-03T11:00:19;101119.06;;;10.12;100.00
32083;BME280;18597;48.328;7.932;2023-02-03T11:02:56;101120.00;;;10.11;100.00
32083;BME280;18597;48.328;7.932;2023-02-03T11:05:23;101111.59;;;10.02;100.00
32083;BME280;18597;48.328;7.932;2023-02-03T11:07:52;101103.59;;;10.02;100.00
32083;BME280;18597;48.328;7.932;2023-02-03T11:10:37;101084.44;;;10.10;100.00
32083;BME280;18597;48.328;7.932;2023-02-03T11:13:24;101071.84;;;10.12;100.00
32083;BME280;18597;48.328;7.932;2023-02-03T11:18:52;101082.47;;;9.84;100.00
32083;BME280;18597;48.328;7.932;2023-02-03T11:21:29;101099.72;;;9.78;100.00
32083;BME280;18597;48.328;7.932;2023-02-03T11:24:10;101087.00;;;9.67;100.00
32083;BME280;18597;48.328;7.932;2023-02-03T11:26:55;101086.28;;;9.80;100.00
32083;BME280;18597;48.328;7.932;2023-02-03T11:29:26;101074.97;;;9.90;100.00
32083;BME280;18597;48.328;7.932;2023-02-03T11:31:56;101066.50;;;10.12;100.00
32083;BME280;18597;48.328;7.932;2023-02-03T11:34:37;101057.03;;;10.37;99.94
32083;BME280;18597;48.328;7.932;2023-02-03T11:42:57;101050.47;;;10.98;92.47
32083;BME280;18597;48.328;7.932;2023-02-03T11:45:43;101048.63;;;11.13;92.10
32083;BME280;18597;48.328;7.932;2023-02-03T11:51:38;101025.50;;;10.70;92.88
32083;BME280;18597;48.328;7.932;2023-02-03T11:54:17;101024.91;;;10.79;95.14
32083;BME280;18597;48.328;7.932;2023-02-03T11:57:14;101002.25;;;10.99;92.36
32083;BME280;18597;48.328;7.932;2023-02-03T12:00:35;101010.00;;;10.90;92.56
32083;BME280;18597;48.328;7.932;2023-02-03T12:21:34;101021.13;;;9.54;97.58
32083;BME280;18597;48.328;7.932;2023-02-03T12:24:30;101012.59;;;9.47;96.11
32083;BME280;18597;48.328;7.932;2023-02-03T12:27:21;100997.50;;;9.32;95.06
32083;BME280;18597;48.328;7.932;2023-02-03T12:30:00;100996.56;;;9.33;95.80
32083;BME280;18597;48.328;7.932;2023-02-03T12:32:41;100993.75;;;9.50;94.87
32083;BME280;18597;48.328;7.932;2023-02-03T12:35:24;100998.72;;;9.56;93.73
32083;BME280;18597;48.328;7.932;2023-02-03T12:38:02;101004.81;;;9.58;92.07
32083;BME280;18597;48.328;7.932;2023-02-03T12:40:46;101003.50;;;9.65;90.97
32083;BME280;18597;48.328;7.932;2023-02-03T12:45:57;100999.75;;;9.84;93.29
32083;BME280;18597;48.328;7.932;2023-02-03T12:48:43;101004.97;;;9.85;92.93
32083;BME280;18597;48.328;7.932;2023-02-03T12:51:17;101002.78;;;9.78;92.33
32083;BME280;18597;48.328;7.932;2023-02-03T12:53:53;101002.19;;;9.72;92.53
32083;BME280;18597;48.328;7.932;2023-02-03T12:56:28;100991.59;;;9.71;92.20
32083;BME280;18597;48.328;7.932;2023-02-03T12:59:08;100977.13;;;9.75;90.70
32083;BME280;18597;48.328;7.932;2023-02-03T13:01:48;100980.81;;;9.72;93.24
32083;BME280;18597;48.328;7.932;2023-02-03T13:04:42;100977.28;;;9.58;92.68
32083;BME280;18597;48.328;7.932;2023-02-03T13:07:40;100976.25;;;9.74;89.86
32083;BME280;18597;48.328;7.932;2023-02-03T13:10:22;100967.84;;;9.66;91.28
32083;BME280;18597;48.328;7.932;2023-02-03T13:12:55;100965.41;;;9.78;91.20
32083;BME280;18597;48.328;7.932;2023-02-03T13:15:43;100973.78;;;9.86;89.77
32083;BME280;18597;48.328;7.932;2023-02-03T13:18:34;100970.19;;;9.87;86.48
32083;BME280;18597;48.328;7.932;2023-02-03T13:21:01;100982.75;;;9.85;88.06
32083;BME280;18597;48.328;7.932;2023-02-03T13:23:27;100986.56;;;9.81;90.22
32083;BME280;18597;48.328;7.932;2023-02-03T13:26:37;100977.69;;;9.80;88.01
32083;BME280;18597;48.328;7.932;2023-02-03T13:30:10;100976.81;;;9.65;89.28
32083;BME280;18597;48.328;7.932;2023-02-03T13:32:46;100972.63;;;9.61;90.12
32083;BME280;18597;48.328;7.932;2023-02-03T13:39:32;100976.06;;;9.33;93.37
32083;BME280;18597;48.328;7.932;2023-02-03T13:42:29;100977.34;;;9.42;93.29
32083;BME280;18597;48.328;7.932;2023-02-03T13:47:38;100974.22;;;9.20;93.27
32083;BME280;18597;48.328;7.932;2023-02-03T13:50:27;100974.97;;;9.22;94.14
32083;BME280;18597;48.328;7.932;2023-02-03T13:53:07;100971.72;;;9.16;93.80
32083;BME280;18597;48.328;7.932;2023-02-03T13:55:42;100973.03;;;9.09;94.20
32083;BME280;18597;48.328;7.932;2023-02-03T13:58:25;100973.63;;;8.99;94.12
32083;BME280;18597;48.328;7.932;2023-02-03T14:06:03;100960.50;;;8.96;97.60
32083;BME280;18597;48.328;7.932;2023-02-03T14:16:47;100942.59;;;8.98;96.08
32083;BME280;18597;48.328;7.932;2023-02-03T14:22:14;100951.56;;;8.97;96.66
32083;BME280;18597;48.328;7.932;2023-02-03T14:24:44;100955.25;;;8.94;98.44
32083;BME280;18597;48.328;7.932;2023-02-03T14:30:08;100957.16;;;8.92;98.28
32083;BME280;18597;48.328;7.932;2023-02-03T14:32:54;100964.97;;;8.95;97.21
32083;BME280;18597;48.328;7.932;2023-02-03T14:35:33;100961.59;;;8.92;98.49
32083;BME280;18597;48.328;7.932;2023-02-03T14:38:04;100950.28;;;8.88;98.65
32083;BME280;18597;48.328;7.932;2023-02-03T14:43:47;100950.06;;;8.77;99.13
32083;BME280;18597;48.328;7.932;2023-02-03T14:52:39;100945.31;;;8.66;99.62
32083;BME280;18597;48.328;7.932;2023-02-03T14:58:40;100957.59;;;8.69;100.00
32083;BME280;18597;48.328;7.932;2023-02-03T15:01:24;100968.69;;;8.77;98.21
32083;BME280;18597;48.328;7.932;2023-02-03T15:06:50;100972.66;;;8.54;100.00